Time;durP1;ratioP1;P1;durP2;ratioP2;P2;SDS_P1;SDS_P2;PMS_P1;PMS_P2;Temp;Humidity;BMP_temperature;BMP_pressure;BME280_temperature;BME280_humidity;BME280_pressure;Samples;Min_cycle;Max_cycle;Signal;HPM_P1;HPM_P2
2023/05/28 00:01:30;;;;;;;11.75;5.72;;;;;;;13.58;52.30;101515.69;5068448;28;20045;-52
2023/05/28 00:03:58;;;;;;;11.15;5.18;;;;;;;13.56;52.32;101513.13;5073078;28;20135;-50
2023/05/28 00:06:25;;;;;;;11.07;5.25;;;;;;;13.54;52.67;101520.28;5073731;28;20068;-51
2023/05/28 00:08:52;;;;;;;9.13;5.35;;;;;;;13.52;53.05;101516.03;5067408;28;20068;-53
2023/05/28 00:11:21;;;;;;;13.23;5.25;;;;;;;13.47;53.19;101510.16;5069185;28;20653;-53
2023/05/28 00:13:48;;;;;;;10.20;5.43;;;;;;;13.40;53.76;101510.50;5063368;28;20140;-52
2023/05/28 00:16:15;;;;;;;12.90;5.28;;;;;;;13.36;53.85;101503.66;5072988;28;20056;-55
2023/05/28 00:18:43;;;;;;;10.23;5.75;;;;;;;13.33;53.61;101498.56;5071394;28;20493;-52
2023/05/28 00:21:11;;;;;;;9.65;6.22;;;;;;;13.33;53.55;101505.66;5069290;28;20048;-54
2023/05/28 00:23:38;;;;;;;9.05;5.95;;;;;;;13.28;53.91;101500.59;5067790;28;20076;-51
2023/05/28 00:26:06;;;;;;;11.05;5.38;;;;;;;13.25;54.15;101495.50;5065742;28;20055;-50
2023/05/28 00:28:33;;;;;;;12.32;5.72;;;;;;;13.21;54.13;101496.56;5069598;28;20059;-54
2023/05/28 00:31:02;;;;;;;8.95;4.63;;;;;;;13.17;55.08;101498.53;5066902;28;20063;-55
2023/05/28 00:33:29;;;;;;;11.60;5.50;;;;;;;13.14;54.98;101495.19;5068923;28;20071;-55
2023/05/28 00:35:57;;;;;;;13.80;5.65;;;;;;;13.11;55.44;101492.75;5068352;28;20497;-51
2023/05/28 00:38:24;;;;;;;9.93;5.82;;;;;;;13.06;56.22;101489.50;5054965;28;20136;-51
2023/05/28 00:40:54;;;;;;;13.35;5.43;;;;;;;13.03;55.60;101482.59;5070128;28;20144;-53
2023/05/28 00:43:21;;;;;;;10.43;5.43;;;;;;;13.00;55.96;101477.47;5065594;28;20056;-53
2023/05/28 00:45:50;;;;;;;14.13;5.93;;;;;;;12.96;55.94;101486.50;5067334;28;20487;-54
2023/05/28 00:48:18;;;;;;;17.75;6.38;;;;;;;12.92;56.63;101484.97;5074324;28;20051;-53
2023/05/28 00:50:46;;;;;;;12.55;5.72;;;;;;;12.86;56.67;101485.31;5068886;28;20074;-52
2023/05/28 00:53:13;;;;;;;8.77;5.15;;;;;;;12.84;57.50;101492.47;5078071;28;20052;-49
2023/05/28 00:55:41;;;;;;;11.32;4.93;;;;;;;12.77;57.52;101489.31;5066073;28;20056;-52
2023/05/28 00:58:08;;;;;;;12.32;6.38;;;;;;;12.75;57.09;101482.41;5069227;28;20040;-55
2023/05/28 01:00:36;;;;;;;10.95;5.32;;;;;;;12.72;57.42;101490.50;5081711;28;20071;-52
2023/05/28 01:03:04;;;;;;;16.30;5.45;;;;;;;12.69;57.57;101483.56;5073447;28;20817;-51
2023/05/28 01:05:34;;;;;;;10.13;5.07;;;;;;;12.67;57.36;101485.47;5079321;28;20048;-53
2023/05/28 01:08:03;;;;;;;12.10;6.15;;;;;;;12.64;57.87;101482.97;5067743;28;20060;-49
2023/05/28 01:10:31;;;;;;;9.50;5.40;;;;;;;12.62;57.93;101479.56;5067240;28;20048;-53
2023/05/28 01:12:59;;;;;;;10.60;5.70;;;;;;;12.60;57.67;101469.06;5068296;28;20049;-50
2023/05/28 01:15:26;;;;;;;12.10;5.55;;;;;;;12.58;57.95;101468.31;5062352;28;20048;-56
2023/05/28 01:17:58;;;;;;;14.65;6.25;;;;;;;12.56;58.64;101474.59;5072352;28;20518;-54
2023/05/28 01:20:27;;;;;;;10.90;5.57;;;;;;;12.51;58.44;101469.56;5072433;28;20215;-52
2023/05/28 01:22:59;;;;;;;10.93;6.00;;;;;;;12.47;58.98;101468.03;5071583;28;20110;-56
2023/05/28 01:25:27;;;;;;;19.10;5.88;;;;;;;12.44;59.20;101468.22;5070982;28;20078;-51
2023/05/28 01:27:54;;;;;;;14.57;5.47;;;;;;;12.39;59.50;101473.72;5068729;28;20531;-49
2023/05/28 01:30:21;;;;;;;10.32;5.75;;;;;;;12.38;59.00;101474.69;5066752;28;20054;-52
2023/05/28 01:32:48;;;;;;;12.43;5.47;;;;;;;12.37;59.29;101478.22;5073583;28;20159;-53
2023/05/28 01:35:16;;;;;;;11.25;5.75;;;;;;;12.34;60.06;101478.41;5073123;28;20277;-52
2023/05/28 01:37:48;;;;;;;9.90;5.97;;;;;;;12.30;59.91;101474.22;5061018;28;20178;-55
2023/05/28 01:40:17;;;;;;;13.45;5.70;;;;;;;12.26;60.49;101482.38;5065914;28;20035;-53
2023/05/28 01:42:46;;;;;;;13.15;6.13;;;;;;;12.20;60.70;101480.91;5079910;28;20080;-56
2023/05/28 01:45:15;;;;;;;16.38;5.63;;;;;;;12.18;60.67;101474.84;5069400;28;20123;-51
2023/05/28 01:47:42;;;;;;;12.23;5.80;;;;;;;12.15;60.39;101475.84;5074211;28;20077;-51
2023/05/28 01:50:10;;;;;;;11.95;5.82;;;;;;;12.13;60.40;101475.09;5074292;28;20054;-49
2023/05/28 01:52:38;;;;;;;12.25;5.80;;;;;;;12.12;60.32;101472.53;5071357;28;20394;-48
2023/05/28 01:55:08;;;;;;;11.70;5.32;;;;;;;12.09;60.89;101462.97;5070991;28;20103;-49
2023/05/28 01:57:35;;;;;;;13.57;5.78;;;;;;;12.07;60.90;101464.00;5070834;28;20125;-53
2023/05/28 02:00:03;;;;;;;17.27;6.25;;;;;;;12.06;60.83;101467.56;5069102;28;20530;-58
2023/05/28 02:02:31;;;;;;;11.10;5.50;;;;;;;12.03;60.56;101465.94;5069835;28;20048;-53
2023/05/28 02:04:58;;;;;;;14.95;5.65;;;;;;;12.02;60.77;101472.16;5077774;28;20060;-50
2023/05/28 02:07:26;;;;;;;10.02;5.20;;;;;;;11.97;61.23;101471.53;5068969;28;20490;-56
2023/05/28 02:09:53;;;;;;;11.77;6.13;;;;;;;11.94;61.13;101462.94;5066369;28;20059;-53
2023/05/28 02:12:20;;;;;;;11.52;5.90;;;;;;;11.90;61.79;101456.97;5068316;28;20131;-51
2023/05/28 02:14:47;;;;;;;13.15;5.45;;;;;;;11.86;61.66;101461.53;5063646;28;20052;-54
2023/05/28 02:17:17;;;;;;;16.35;5.97;;;;;;;11.84;61.55;101457.25;5067381;28;20048;-53
2023/05/28 02:19:45;;;;;;;20.17;5.35;;;;;;;11.84;61.73;101457.25;5074185;28;20155;-54
2023/05/28 02:22:13;;;;;;;15.07;5.90;;;;;;;11.81;61.72;101460.03;5065292;28;20121;-51
2023/05/28 02:24:40;;;;;;;15.43;5.75;;;;;;;11.78;61.86;101455.75;5064740;28;20057;-53
2023/05/28 02:27:09;;;;;;;8.82;5.28;;;;;;;11.77;62.30;101455.84;5072788;28;20044;-55
2023/05/28 02:29:36;;;;;;;13.70;6.13;;;;;;;11.73;62.66;101459.56;5065763;28;20044;-55
2023/05/28 02:32:04;;;;;;;13.38;5.53;;;;;;;11.70;62.42;101460.56;5065528;28;20148;-57
2023/05/28 02:34:31;;;;;;;16.33;5.60;;;;;;;11.67;62.75;101458.09;5068994;28;20060;-51
2023/05/28 02:37:00;;;;;;;10.18;5.78;;;;;;;11.64;62.85;101455.59;5065000;28;20492;-53
2023/05/28 02:39:27;;;;;;;16.85;5.85;;;;;;;11.62;63.45;101462.75;5060695;28;20083;-57
2023/05/28 02:41:54;;;;;;;13.48;5.22;;;;;;;11.60;62.87;101454.03;5064667;28;20056;-55
2023/05/28 02:44:22;;;;;;;9.70;6.03;;;;;;;11.57;63.40;101452.44;5058824;28;20052;-55
2023/05/28 02:46:49;;;;;;;12.68;5.88;;;;;;;11.56;64.04;101455.13;5062421;28;20064;-54
2023/05/28 02:49:16;;;;;;;13.65;5.30;;;;;;;11.51;64.48;101457.97;5066807;28;20048;-56
2023/05/28 02:51:44;;;;;;;14.90;6.13;;;;;;;11.49;64.64;101461.66;5072355;28;20130;-53
2023/05/28 02:54:11;;;;;;;11.18;5.60;;;;;;;11.47;64.51;101463.50;5064480;28;20048;-57
2023/05/28 02:56:38;;;;;;;10.88;5.82;;;;;;;11.43;65.11;101462.78;5064790;28;20459;-52
2023/05/28 02:59:06;;;;;;;12.30;5.15;;;;;;;11.41;65.10;101460.22;5062313;28;20421;-55
2023/05/28 03:01:33;;;;;;;11.02;5.38;;;;;;;11.38;65.64;101465.63;5068027;28;20585;-52
2023/05/28 03:04:00;;;;;;;13.95;5.70;;;;;;;11.34;65.76;101474.63;5075301;28;20056;-52
2023/05/28 03:06:27;;;;;;;16.25;6.05;;;;;;;11.33;65.75;101474.72;5076212;28;20139;-57
2023/05/28 03:08:55;;;;;;;18.05;5.60;;;;;;;11.30;65.80;101461.66;5068513;28;20129;-55
2023/05/28 03:11:22;;;;;;;15.45;5.80;;;;;;;11.30;65.91;101456.41;5069687;28;20110;-53
2023/05/28 03:13:49;;;;;;;12.10;5.20;;;;;;;11.27;65.60;101465.31;5066933;28;20478;-54
2023/05/28 03:16:17;;;;;;;8.52;5.28;;;;;;;11.27;65.21;101462.69;5065530;28;20623;-55
2023/05/28 03:18:45;;;;;;;11.48;5.53;;;;;;;11.29;65.68;101460.81;5064693;28;20120;-54
2023/05/28 03:21:12;;;;;;;12.35;5.63;;;;;;;11.30;65.63;101462.56;5069552;28;20041;-54
2023/05/28 03:23:40;;;;;;;12.15;5.80;;;;;;;11.33;65.17;101461.53;5065569;28;20044;-49
2023/05/28 03:26:07;;;;;;;12.05;5.60;;;;;;;11.34;64.95;101461.44;5067941;28;20060;-52
2023/05/28 03:28:34;;;;;;;10.15;4.70;;;;;;;11.35;64.90;101457.06;5062467;28;20085;-51
2023/05/28 03:31:03;;;;;;;11.00;5.03;;;;;;;11.37;64.81;101458.66;5064568;28;20136;-53
2023/05/28 03:33:31;;;;;;;10.80;5.47;;;;;;;11.39;64.35;101456.81;5066436;28;20056;-55
2023/05/28 03:35:58;;;;;;;14.40;5.25;;;;;;;11.40;64.33;101458.53;5068962;28;20051;-56
2023/05/28 03:38:25;;;;;;;11.95;5.63;;;;;;;11.43;64.74;101452.22;5064627;28;20056;-53
2023/05/28 03:40:52;;;;;;;10.82;5.55;;;;;;;11.46;64.49;101453.88;5067610;28;20746;-55
2023/05/28 03:43:20;;;;;;;11.48;5.07;;;;;;;11.51;64.42;101446.59;5059557;28;20060;-57
2023/05/28 03:45:47;;;;;;;15.68;5.25;;;;;;;11.57;64.39;101454.19;5060534;28;20059;-55
2023/05/28 03:48:14;;;;;;;11.25;5.07;;;;;;;11.61;64.07;101453.94;5066228;28;20130;-55
2023/05/28 03:50:42;;;;;;;11.73;5.13;;;;;;;11.66;63.82;101453.72;5072809;28;20058;-56
2023/05/28 03:53:09;;;;;;;11.18;5.68;;;;;;;11.68;63.45;101446.59;5067255;28;20044;-54
2023/05/28 03:55:38;;;;;;;11.65;4.88;;;;;;;11.72;63.09;101452.59;5066839;28;20458;-54
2023/05/28 03:58:05;;;;;;;14.80;6.15;;;;;;;11.75;62.79;101445.38;5064089;28;20061;-56
2023/05/28 04:00:32;;;;;;;10.65;4.72;;;;;;;11.78;62.71;101449.63;5067068;28;20049;-50
2023/05/28 04:03:00;;;;;;;13.65;4.70;;;;;;;11.81;62.33;101446.84;5067252;28;20136;-51
2023/05/28 04:05:27;;;;;;;15.15;5.50;;;;;;;11.84;62.18;101441.41;5068071;28;20158;-53
2023/05/28 04:07:55;;;;;;;12.20;4.72;;;;;;;11.87;62.00;101441.28;5068043;28;20076;-54
2023/05/28 04:10:22;;;;;;;20.00;5.40;;;;;;;11.92;62.00;101449.81;5070473;28;20860;-53
2023/05/28 04:12:49;;;;;;;7.93;4.35;;;;;;;11.95;61.83;101447.00;5072434;28;20131;-56
2023/05/28 04:15:18;;;;;;;14.32;5.10;;;;;;;12.00;61.88;101452.91;5064907;28;20044;-52
2023/05/28 04:17:45;;;;;;;15.63;6.10;;;;;;;12.03;61.90;101454.53;5060350;28;20049;-52
2023/05/28 04:20:12;;;;;;;12.80;5.20;;;;;;;12.05;61.89;101455.31;5071014;28;20131;-56
2023/05/28 04:22:40;;;;;;;10.55;5.60;;;;;;;12.09;61.42;101451.56;5069629;28;20064;-54
2023/05/28 04:25:07;;;;;;;13.23;5.18;;;;;;;12.14;61.22;101450.41;5068859;28;20059;-56
2023/05/28 04:31:17;;;;;;;13.23;5.40;;;;;;;12.27;61.11;101441.84;5063728;28;20499;-54
2023/05/28 04:33:47;;;;;;;12.43;5.70;;;;;;;12.29;61.28;101451.41;5069827;28;20078;-52
2023/05/28 04:36:14;;;;;;;15.57;5.72;;;;;;;12.34;60.68;101446.72;5064644;28;20129;-53
2023/05/28 04:38:42;;;;;;;11.82;5.22;;;;;;;12.39;60.60;101451.75;5069460;28;20056;-54
2023/05/28 04:42:03;;;;;;;15.38;5.30;;;;;;;12.46;60.13;101454.91;5070215;28;20540;-52
2023/05/28 04:44:32;;;;;;;12.15;5.20;;;;;;;12.51;59.90;101453.72;5062456;28;20059;-57
2023/05/28 04:47:00;;;;;;;15.68;5.50;;;;;;;12.56;59.43;101449.06;5065137;28;20787;-56
2023/05/28 04:49:27;;;;;;;15.80;5.18;;;;;;;12.64;58.88;101448.63;5092470;28;20163;-53
2023/05/28 04:51:54;;;;;;;11.18;5.70;;;;;;;12.69;58.75;101451.88;5066021;28;20167;-55
2023/05/28 04:54:22;;;;;;;11.20;4.80;;;;;;;12.74;58.71;101455.13;5073054;28;20066;-51
2023/05/28 04:56:54;;;;;;;13.73;5.40;;;;;;;12.80;58.73;101457.44;5086347;28;20059;-53
2023/05/28 04:59:21;;;;;;;11.30;4.70;;;;;;;12.85;58.77;101452.75;5063621;28;20044;-54
2023/05/28 05:01:48;;;;;;;17.38;5.40;;;;;;;12.92;57.90;101455.88;5061104;28;20056;-54
2023/05/28 05:04:15;;;;;;;16.02;5.78;;;;;;;12.99;57.86;101454.63;5076599;28;20055;-54
2023/05/28 05:06:43;;;;;;;10.27;4.82;;;;;;;13.06;57.90;101461.28;5073050;28;20625;-52
2023/05/28 05:09:10;;;;;;;11.30;4.70;;;;;;;13.13;57.08;101464.44;5071011;28;20049;-58
2023/05/28 05:11:37;;;;;;;10.80;4.43;;;;;;;13.20;57.02;101462.31;5068225;28;20053;-53
2023/05/28 05:14:04;;;;;;;12.07;5.30;;;;;;;13.28;56.55;101454.78;5070667;28;20135;-55
2023/05/28 05:16:32;;;;;;;10.98;4.35;;;;;;;13.37;56.23;101456.91;5065894;28;20134;-53
2023/05/28 05:18:59;;;;;;;13.50;5.55;;;;;;;13.45;56.01;101456.47;5069798;28;20044;-53
2023/05/28 05:21:26;;;;;;;15.25;5.00;;;;;;;13.53;55.94;101455.09;5072809;28;20048;-54
2023/05/28 05:23:54;;;;;;;14.45;5.05;;;;;;;13.63;55.13;101448.31;5075591;28;20080;-55
2023/05/28 05:26:21;;;;;;;10.73;5.55;;;;;;;13.73;54.88;101455.72;5062472;28;20053;-56
2023/05/28 05:28:48;;;;;;;15.85;5.57;;;;;;;13.79;54.50;101448.28;5067877;28;20048;-56
2023/05/28 05:31:15;;;;;;;10.57;5.28;;;;;;;13.85;54.22;101450.56;5067367;28;20060;-53
2023/05/28 05:33:43;;;;;;;12.18;4.53;;;;;;;13.96;54.23;101444.66;5070582;28;20216;-51
2023/05/28 05:36:11;;;;;;;9.63;4.13;;;;;;;14.07;54.12;101447.47;5075194;28;20044;-54
2023/05/28 05:38:38;;;;;;;11.13;4.78;;;;;;;14.13;53.28;101444.44;5072460;28;20048;-56
2023/05/28 05:41:05;;;;;;;9.70;4.53;;;;;;;14.19;52.07;101453.84;5071226;28;20053;-52
2023/05/28 05:43:32;;;;;;;11.63;4.75;;;;;;;14.27;51.45;101453.34;5067183;28;20056;-53
2023/05/28 05:46:00;;;;;;;6.32;3.92;;;;;;;14.33;51.55;101453.00;5060321;28;20153;-54
2023/05/28 05:48:27;;;;;;;9.13;4.18;;;;;;;14.44;50.94;101447.88;5068261;28;20094;-52
2023/05/28 05:50:55;;;;;;;7.53;4.00;;;;;;;14.57;50.62;101448.00;5073505;28;20071;-52
2023/05/28 05:53:22;;;;;;;9.63;4.20;;;;;;;14.67;50.22;101455.25;5066477;28;20040;-54
2023/05/28 05:55:50;;;;;;;11.95;4.28;;;;;;;14.80;49.93;101458.00;5069553;28;20048;-55
2023/05/28 05:58:18;;;;;;;9.25;4.18;;;;;;;14.91;49.59;101455.53;5072944;28;20044;-56
2023/05/28 06:00:45;;;;;;;8.63;3.80;;;;;;;15.03;49.23;101447.72;5065651;28;20053;-55
2023/05/28 06:03:12;;;;;;;8.57;4.35;;;;;;;15.12;48.99;101453.28;5062911;28;20048;-54
2023/05/28 06:05:40;;;;;;;9.63;4.53;;;;;;;15.22;48.04;101455.34;5070357;28;20051;-56
2023/05/28 06:08:07;;;;;;;11.05;3.97;;;;;;;15.32;47.65;101453.81;5069632;28;20052;-56
2023/05/28 06:10:35;;;;;;;9.30;3.60;;;;;;;15.39;47.18;101452.44;5065133;28;20052;-54
2023/05/28 06:13:02;;;;;;;10.20;3.97;;;;;;;15.48;46.85;101449.16;5073066;28;20052;-51
2023/05/28 06:15:31;;;;;;;8.93;3.88;;;;;;;15.59;46.61;101451.97;5067235;28;20047;-54
2023/05/28 06:18:00;;;;;;;9.23;4.10;;;;;;;15.69;46.40;101450.44;5063997;28;20056;-52
2023/05/28 06:20:27;;;;;;;6.90;3.42;;;;;;;15.82;46.00;101458.41;5066854;28;20073;-53
2023/05/28 06:22:55;;;;;;;9.40;3.50;;;;;;;15.92;45.57;101448.03;5072505;28;20075;-54
2023/05/28 06:25:23;;;;;;;9.48;2.95;;;;;;;16.04;45.02;101454.31;5069731;28;20460;-56
2023/05/28 06:27:51;;;;;;;9.77;3.25;;;;;;;16.13;44.08;101448.38;5069994;28;20083;-52
2023/05/28 06:30:18;;;;;;;5.60;3.00;;;;;;;16.25;43.91;101447.50;5065972;28;20171;-55
2023/05/28 06:32:45;;;;;;;8.85;3.50;;;;;;;16.34;43.24;101449.50;5066916;28;20500;-53
2023/05/28 06:35:13;;;;;;;8.50;3.38;;;;;;;16.44;42.86;101449.72;5071403;28;20049;-53
2023/05/28 06:37:40;;;;;;;10.23;4.28;;;;;;;16.57;42.55;101442.59;5070935;28;20048;-51
2023/05/28 06:40:10;;;;;;;10.18;3.38;;;;;;;16.66;41.87;101444.59;5065343;28;20055;-54
2023/05/28 06:42:38;;;;;;;6.57;2.70;;;;;;;16.77;41.26;101448.31;5066138;28;20100;-52
2023/05/28 06:45:06;;;;;;;6.13;3.00;;;;;;;16.86;41.06;101459.13;5057735;28;20492;-54
2023/05/28 06:47:33;;;;;;;6.07;3.70;;;;;;;16.99;40.97;101456.44;5063253;28;20048;-55
2023/05/28 06:50:06;;;;;;;9.02;3.25;;;;;;;17.06;40.53;101462.16;5064399;28;20056;-49
2023/05/28 06:52:33;;;;;;;6.82;3.05;;;;;;;17.17;40.67;101456.91;5074993;28;20043;-55
2023/05/28 06:55:00;;;;;;;9.57;3.28;;;;;;;17.31;39.92;101450.56;5063279;28;20532;-54
2023/05/28 06:57:28;;;;;;;5.55;2.70;;;;;;;17.36;39.17;101459.91;5065684;28;20129;-49
2023/05/28 06:59:55;;;;;;;6.78;3.20;;;;;;;17.48;39.25;101447.50;5067429;28;20061;-52
2023/05/28 07:02:22;;;;;;;6.20;2.38;;;;;;;17.57;38.56;101448.63;5070154;28;20058;-53
2023/05/28 07:04:49;;;;;;;7.95;2.45;;;;;;;17.64;38.38;101456.03;5073119;28;20138;-53
2023/05/28 07:07:17;;;;;;;11.50;3.17;;;;;;;17.79;38.14;101455.88;5070195;28;20048;-53
2023/05/28 07:09:45;;;;;;;7.30;2.67;;;;;;;17.89;38.31;101459.53;5077959;28;20071;-54
2023/05/28 07:12:12;;;;;;;8.07;2.85;;;;;;;17.97;37.15;101457.13;5062640;28;20041;-55
2023/05/28 07:14:39;;;;;;;4.40;2.58;;;;;;;18.10;37.16;101452.56;5059338;28;20075;-52
2023/05/28 07:17:07;;;;;;;9.43;3.38;;;;;;;18.20;36.77;101445.53;5062607;28;20064;-56
2023/05/28 07:19:34;;;;;;;5.35;2.63;;;;;;;18.27;37.02;101448.56;5058060;28;20056;-59
2023/05/28 07:22:01;;;;;;;5.60;2.40;;;;;;;18.35;36.78;101440.81;5052173;28;20159;-59
2023/05/28 07:24:28;;;;;;;5.95;2.83;;;;;;;18.48;36.39;101446.88;5067731;28;20063;-59
2023/05/28 07:26:56;;;;;;;4.65;1.95;;;;;;;18.60;35.87;101438.91;5063936;28;20052;-57
2023/05/28 07:29:23;;;;;;;8.07;2.53;;;;;;;18.74;35.76;101445.81;5066732;28;20067;-55
2023/05/28 07:31:50;;;;;;;6.80;2.28;;;;;;;18.89;35.83;101436.56;5058317;28;20052;-56
2023/05/28 07:34:17;;;;;;;6.45;2.17;;;;;;;18.94;35.69;101443.22;5061903;28;20120;-52
2023/05/28 07:36:45;;;;;;;5.55;2.00;;;;;;;19.04;35.75;101445.97;5069517;28;20071;-55
2023/05/28 07:39:12;;;;;;;5.45;2.47;;;;;;;19.15;35.21;101451.31;5062356;28;20051;-56
2023/05/28 07:41:39;;;;;;;4.05;2.17;;;;;;;19.29;34.79;101455.50;5069961;28;20446;-55
2023/05/28 07:44:06;;;;;;;4.80;2.45;;;;;;;19.40;33.99;101455.44;5069442;28;20342;-55
2023/05/28 07:46:34;;;;;;;7.68;2.80;;;;;;;19.50;33.75;101450.22;5068366;28;20435;-54
2023/05/28 07:49:02;;;;;;;8.30;2.38;;;;;;;19.57;33.69;101450.53;5067061;28;20059;-54
2023/05/28 07:51:31;;;;;;;6.05;1.95;;;;;;;19.57;33.14;101446.03;5073916;28;20139;-55
2023/05/28 07:53:58;;;;;;;5.57;2.60;;;;;;;19.66;33.49;101442.63;5070288;28;20136;-56
2023/05/28 07:56:26;;;;;;;7.13;1.65;;;;;;;19.80;33.61;101444.13;5074771;28;20390;-54
2023/05/28 07:58:53;;;;;;;6.60;2.75;;;;;;;19.89;33.21;101443.34;5076550;28;20048;-53
2023/05/28 08:01:21;;;;;;;6.03;2.58;;;;;;;19.94;32.88;101443.78;5065155;28;20079;-50
2023/05/28 08:03:50;;;;;;;6.45;2.15;;;;;;;19.96;32.12;101431.16;5068538;28;20052;-54
2023/05/28 08:06:18;;;;;;;7.00;2.22;;;;;;;20.00;31.50;101425.56;5076149;28;20078;-54
2023/05/28 08:08:45;;;;;;;5.25;2.42;;;;;;;20.00;30.95;101425.56;5077426;28;20055;-55
2023/05/28 08:11:14;;;;;;;7.28;2.33;;;;;;;19.97;31.51;101421.31;5060415;28;20093;-60
2023/05/28 08:13:41;;;;;;;3.60;2.20;;;;;;;20.10;31.83;101421.97;5063237;28;20135;-61
2023/05/28 08:16:12;;;;;;;10.52;3.03;;;;;;;20.24;31.53;101416.25;5078705;28;20183;-60
2023/05/28 08:18:39;;;;;;;7.43;2.22;;;;;;;20.38;31.33;101416.88;5067028;28;20135;-61
2023/05/28 08:21:07;;;;;;;8.32;2.33;;;;;;;20.51;31.57;101422.88;5067845;28;20060;-60
2023/05/28 08:23:34;;;;;;;10.55;2.63;;;;;;;20.66;31.76;101420.66;5066061;28;20047;-60
2023/05/28 08:26:02;;;;;;;8.52;2.15;;;;;;;20.83;31.73;101425.34;5067481;28;20056;-60
2023/05/28 08:28:30;;;;;;;4.57;2.10;;;;;;;20.97;31.07;101424.94;5070309;28;20044;-60
2023/05/28 08:30:57;;;;;;;3.25;1.85;;;;;;;21.05;30.91;101426.09;5070779;28;20507;-59
2023/05/28 08:33:25;;;;;;;5.28;2.17;;;;;;;21.15;30.50;101429.63;5067736;28;20139;-59
2023/05/28 08:35:52;;;;;;;5.55;2.40;;;;;;;21.21;30.17;101423.75;5067860;28;20057;-60
2023/05/28 08:38:20;;;;;;;3.35;2.10;;;;;;;21.26;30.56;101426.84;5063339;28;20057;-59
2023/05/28 08:40:54;;;;;;;6.15;2.58;;;;;;;21.29;30.01;101423.84;5068887;28;20809;-59
2023/05/28 08:43:22;;;;;;;7.07;2.42;;;;;;;21.36;29.86;101424.19;5067218;28;20044;-59
2023/05/28 08:45:51;;;;;;;4.25;2.40;;;;;;;21.46;29.93;101417.84;5066478;28;20137;-57
2023/05/28 08:48:21;;;;;;;6.07;1.65;;;;;;;21.54;29.87;101422.50;5056586;28;20056;-58
2023/05/28 08:50:52;;;;;;;4.55;2.13;;;;;;;21.68;29.44;101419.38;5064982;28;20093;-58
2023/05/28 08:53:24;;;;;;;6.10;2.38;;;;;;;21.80;29.33;101424.59;5066861;28;20130;-57
2023/05/28 08:55:55;;;;;;;4.28;2.25;;;;;;;21.85;29.22;101427.66;5066863;28;20457;-58
2023/05/28 08:58:23;;;;;;;6.28;2.33;;;;;;;21.88;28.93;101409.44;5066790;28;20163;-54
2023/05/28 09:00:50;;;;;;;5.32;2.65;;;;;;;21.80;29.23;101409.34;5061266;28;20135;-55
2023/05/28 09:03:18;;;;;;;8.88;2.30;;;;;;;21.88;29.58;101408.59;5061235;28;20079;-58
2023/05/28 09:05:46;;;;;;;3.95;2.25;;;;;;;22.02;29.37;101407.28;5062973;28;20062;-58
2023/05/28 09:08:13;;;;;;;6.65;2.40;;;;;;;22.12;28.98;101409.00;5064317;28;20179;-55
2023/05/28 09:10:41;;;;;;;3.78;2.00;;;;;;;22.17;28.58;101404.03;5064163;28;20067;-56
2023/05/28 09:13:08;;;;;;;3.90;2.00;;;;;;;22.16;28.53;101401.50;5067641;28;20066;-58
2023/05/28 09:15:36;;;;;;;4.13;1.90;;;;;;;22.12;28.61;101398.28;5064127;28;20052;-56
2023/05/28 09:18:06;;;;;;;4.63;2.03;;;;;;;22.10;28.00;101386.81;5067446;28;20078;-51
2023/05/28 09:20:33;;;;;;;3.83;1.92;;;;;;;22.18;28.00;101400.34;5067192;28;20054;-58
2023/05/28 09:23:05;;;;;;;5.68;1.75;;;;;;;22.16;27.78;101391.63;5067196;28;20063;-56
2023/05/28 09:25:36;;;;;;;4.97;2.50;;;;;;;22.13;27.91;101391.06;5066178;28;20059;-55
2023/05/28 09:28:04;;;;;;;8.70;2.55;;;;;;;22.22;28.24;101392.88;5069070;28;20496;-56
2023/05/28 09:30:35;;;;;;;6.20;2.42;;;;;;;22.10;27.91;101391.31;5065829;28;20060;-56
2023/05/28 09:33:04;;;;;;;3.95;2.35;;;;;;;22.20;28.22;101387.66;5066990;28;20060;-55
2023/05/28 09:35:32;;;;;;;8.15;2.83;;;;;;;22.30;27.66;101384.94;5064045;28;20390;-57
2023/05/28 09:38:01;;;;;;;3.38;1.85;;;;;;;22.36;28.28;101373.59;5068497;28;20257;-56
2023/05/28 09:40:28;;;;;;;6.10;2.28;;;;;;;22.41;28.50;101375.84;5061694;28;20135;-56
2023/05/28 09:42:56;;;;;;;4.53;2.22;;;;;;;22.56;28.55;101365.44;5060612;28;20587;-52
2023/05/28 09:45:27;;;;;;;3.90;2.20;;;;;;;22.76;28.59;101375.06;5066712;28;20071;-56
2023/05/28 09:47:54;;;;;;;7.07;2.33;;;;;;;22.94;28.19;101375.13;5064349;28;20067;-56
2023/05/28 09:50:22;;;;;;;3.75;2.30;;;;;;;23.03;28.34;101381.41;5063598;28;20055;-57
2023/05/28 09:52:50;;;;;;;7.72;2.30;;;;;;;23.13;28.00;101377.66;5066621;28;20056;-58
2023/05/28 09:55:18;;;;;;;5.72;2.40;;;;;;;23.09;27.10;101376.25;5064654;28;20053;-54
2023/05/28 09:58:05;;;;;;;7.47;2.25;;;;;;;23.01;26.49;101378.91;5065280;28;20074;-55
2023/05/28 10:00:36;;;;;;;5.03;2.50;;;;;;;22.94;27.05;101369.75;5065434;28;20044;-57
2023/05/28 10:03:15;;;;;;;3.10;2.03;;;;;;;23.03;27.52;101358.09;5064165;28;20045;-57
2023/05/28 10:05:44;;;;;;;8.10;2.50;;;;;;;23.20;27.22;101370.66;5064402;28;20059;-58
2023/05/28 10:08:15;;;;;;;5.70;2.97;;;;;;;23.33;26.99;101364.06;5063895;28;20135;-59
2023/05/28 10:10:45;;;;;;;5.18;1.88;;;;;;;23.48;27.21;101374.09;5063235;28;20070;-59
2023/05/28 10:13:13;;;;;;;8.82;2.38;;;;;;;23.68;27.08;101360.47;5061025;28;20048;-58
2023/05/28 10:15:40;;;;;;;9.27;2.17;;;;;;;23.72;26.59;101360.00;5064662;28;20069;-56
2023/05/28 10:18:08;;;;;;;5.57;2.30;;;;;;;23.87;26.72;101365.66;5062670;28;20674;-59
2023/05/28 10:20:36;;;;;;;6.35;2.38;;;;;;;23.98;26.67;101361.84;5062261;28;20060;-58
2023/05/28 10:23:04;;;;;;;3.47;1.90;;;;;;;24.13;26.79;101364.75;5066150;28;20075;-57
2023/05/28 10:25:31;;;;;;;4.72;2.25;;;;;;;24.19;26.31;101354.22;5062181;28;20045;-55
2023/05/28 10:28:02;;;;;;;4.72;2.17;;;;;;;24.06;25.63;101348.44;5069465;28;20056;-58
2023/05/28 10:30:36;;;;;;;3.47;2.00;;;;;;;23.83;26.33;101348.16;5063075;28;20052;-56
2023/05/28 10:33:16;;;;;;;3.65;2.05;;;;;;;23.95;26.86;101348.69;5063162;28;20048;-57
2023/05/28 10:35:55;;;;;;;5.43;2.10;;;;;;;24.24;26.92;101348.34;5068862;28;20048;-56
2023/05/28 10:38:23;;;;;;;5.35;2.40;;;;;;;24.50;26.20;101348.31;5065023;28;20063;-58
2023/05/28 10:40:51;;;;;;;5.00;2.20;;;;;;;24.47;25.79;101354.84;5063771;28;20052;-58
2023/05/28 10:43:46;;;;;;;4.65;2.25;;;;;;;24.63;25.75;101350.50;5067349;28;20139;-60
2023/05/28 10:46:17;;;;;;;;;;;;;;;24.80;25.39;101346.00;5064049;28;20052;-58
2023/05/28 10:49:03;;;;;;;6.03;2.25;;;;;;;24.80;25.20;101349.53;5060452;28;19943;-57
2023/05/28 10:52:03;;;;;;;6.72;2.65;;;;;;;24.84;25.50;101356.28;5081203;28;20063;-57
2023/05/28 10:54:30;;;;;;;4.97;2.28;;;;;;;25.06;25.74;101344.03;5066030;28;20619;-53
2023/05/28 10:57:12;;;;;;;8.25;2.47;;;;;;;25.22;24.80;101351.31;5066753;28;20059;-56
2023/05/28 10:59:45;;;;;;;3.95;2.47;;;;;;;25.21;24.84;101344.22;5069179;28;20054;-57
2023/05/28 11:02:19;;;;;;;6.68;2.20;;;;;;;25.30;24.83;101347.75;5064820;28;20458;-56
2023/05/28 11:04:50;;;;;;;3.83;2.20;;;;;;;25.41;24.59;101350.97;5063226;28;20056;-59
2023/05/28 11:07:18;;;;;;;4.38;2.42;;;;;;;25.61;24.95;101350.59;5064824;28;20059;-59
2023/05/28 11:09:51;;;;;;;4.53;2.42;;;;;;;25.76;24.22;101348.94;5068025;28;20465;-55
2023/05/28 11:12:20;;;;;;;4.80;2.40;;;;;;;25.73;24.86;101347.38;5065736;28;20063;-58
2023/05/28 11:14:47;;;;;;;5.18;2.70;;;;;;;25.74;24.52;101346.34;5067064;28;20132;-58
2023/05/28 11:17:15;;;;;;;7.18;2.35;;;;;;;25.70;23.60;101349.56;5064891;28;20076;-59
2023/05/28 11:19:47;;;;;;;5.82;2.53;;;;;;;25.70;24.61;101350.41;5059311;28;20061;-59
2023/05/28 11:22:15;;;;;;;5.88;2.50;;;;;;;26.00;24.82;101342.63;5059357;28;20056;-54
2023/05/28 11:25:04;;;;;;;7.28;2.15;;;;;;;26.27;24.75;101346.72;5061962;28;20389;-59
2023/05/28 11:27:35;;;;;;;6.88;2.20;;;;;;;26.41;23.54;101347.84;5066267;28;20048;-61
2023/05/28 11:30:11;;;;;;;6.65;1.90;;;;;;;26.40;23.53;101347.00;5061411;28;20057;-60
2023/05/28 11:32:39;;;;;;;5.55;2.90;;;;;;;26.42;23.11;101341.41;5078265;28;20098;-58